sensor_id;sensor_type;location;lat;lon;timestamp;pressure;altitude;pressure_sealevel;temperature;humidity
84310;BME280;74488;49.036;11.472;2023-12-20T00:00:27;97314.22;;;3.30;86.27
84310;BME280;74488;49.036;11.472;2023-12-20T00:01:28;97321.38;;;3.26;85.65
84310;BME280;74488;49.036;11.472;2023-12-20T00:02:30;97325.59;;;3.30;85.36
84310;BME280;74488;49.036;11.472;2023-12-20T00:03:31;97318.56;;;3.31;85.40
84310;BME280;74488;49.036;11.472;2023-12-20T00:04:43;97311.47;;;3.33;85.34
84310;BME280;74488;49.036;11.472;2023-12-20T00:05:45;97311.47;;;3.33;85.39
84310;BME280;74488;49.036;11.472;2023-12-20T00:06:46;97307.09;;;3.32;85.55
84310;BME280;74488;49.036;11.472;2023-12-20T00:07:48;97307.16;;;3.30;85.77
84310;BME280;74488;49.036;11.472;2023-12-20T00:08:50;97300.97;;;3.31;85.85
84310;BME280;74488;49.036;11.472;2023-12-20T00:09:52;97293.72;;;3.38;86.22
84310;BME280;74488;49.036;11.472;2023-12-20T00:10:53;97287.34;;;3.43;85.57
84310;BME280;74488;49.036;11.472;2023-12-20T00:11:55;97292.41;;;3.49;85.03
84310;BME280;74488;49.036;11.472;2023-12-20T00:12:56;97288.91;;;3.49;84.88
84310;BME280;74488;49.036;11.472;2023-12-20T00:13:58;97295.19;;;3.45;84.59
84310;BME280;74488;49.036;11.472;2023-12-20T00:14:59;97297.78;;;3.46;84.19
84310;BME280;74488;49.036;11.472;2023-12-20T00:16:00;97300.38;;;3.48;84.38
84310;BME280;74488;49.036;11.472;2023-12-20T00:17:02;97303.69;;;3.53;84.53
84310;BME280;74488;49.036;11.472;2023-12-20T00:18:04;97251.09;;;3.25;83.54
84310;BME280;74488;49.036;11.472;2023-12-20T00:19:06;97293.03;;;3.56;83.63
84310;BME280;74488;49.036;11.472;2023-12-20T00:20:09;97286.56;;;3.65;83.06
84310;BME280;74488;49.036;11.472;2023-12-20T00:21:11;97268.28;;;3.60;82.25
84310;BME280;74488;49.036;11.472;2023-12-20T00:22:13;97276.72;;;3.70;83.47
84310;BME280;74488;49.036;11.472;2023-12-20T00:23:14;97280.03;;;3.75;82.38
84310;BME280;74488;49.036;11.472;2023-12-20T00:24:16;97270.34;;;3.75;81.84
84310;BME280;74488;49.036;11.472;2023-12-20T00:25:17;97273.44;;;3.86;81.17
84310;BME280;74488;49.036;11.472;2023-12-20T00:26:19;97258.41;;;3.88;81.15
84310;BME280;74488;49.036;11.472;2023-12-20T00:27:21;97273.16;;;3.94;80.95
84310;BME280;74488;49.036;11.472;2023-12-20T00:28:22;97263.56;;;3.91;81.05
84310;BME280;74488;49.036;11.472;2023-12-20T00:29:24;97259.16;;;3.92;81.53
84310;BME280;74488;49.036;11.472;2023-12-20T00:30:25;97263.16;;;4.02;80.86
84310;BME280;74488;49.036;11.472;2023-12-20T00:31:27;97219.47;;;3.72;80.71
84310;BME280;74488;49.036;11.472;2023-12-20T00:32:29;97262.28;;;4.01;80.94
84310;BME280;74488;49.036;11.472;2023-12-20T00:33:30;97251.69;;;4.03;81.22
84310;BME280;74488;49.036;11.472;2023-12-20T00:34:32;97257.56;;;4.09;81.12
84310;BME280;74488;49.036;11.472;2023-12-20T00:35:33;97263.09;;;4.03;81.36
84310;BME280;74488;49.036;11.472;2023-12-20T00:36:35;97259.72;;;4.00;81.96
84310;BME280;74488;49.036;11.472;2023-12-20T00:37:37;97262.47;;;3.97;82.56
84310;BME280;74488;49.036;11.472;2023-12-20T00:38:38;97255.47;;;3.96;81.86
84310;BME280;74488;49.036;11.472;2023-12-20T00:39:40;97269.72;;;3.92;81.64
84310;BME280;74488;49.036;11.472;2023-12-20T00:40:41;97257.34;;;3.92;82.24
84310;BME280;74488;49.036;11.472;2023-12-20T00:41:42;97256.41;;;3.95;82.52
84310;BME280;74488;49.036;11.472;2023-12-20T00:42:44;97251.91;;;3.97;82.38
84310;BME280;74488;49.036;11.472;2023-12-20T00:43:48;97259.03;;;3.95;82.77
84310;BME280;74488;49.036;11.472;2023-12-20T00:44:50;97260.00;;;3.92;83.33
84310;BME280;74488;49.036;11.472;2023-12-20T00:45:52;97252.16;;;3.91;83.64
84310;BME280;74488;49.036;11.472;2023-12-20T00:46:53;97259.28;;;3.89;84.01
84310;BME280;74488;49.036;11.472;2023-12-20T00:47:55;97258.44;;;3.87;85.62
84310;BME280;74488;49.036;11.472;2023-12-20T00:48:56;97258.59;;;3.84;86.31
84310;BME280;74488;49.036;11.472;2023-12-20T00:49:58;97253.53;;;3.78;86.75
84310;BME280;74488;49.036;11.472;2023-12-20T00:51:00;97265.69;;;3.82;86.79
84310;BME280;74488;49.036;11.472;2023-12-20T00:52:01;97262.38;;;3.77;87.54
84310;BME280;74488;49.036;11.472;2023-12-20T00:53:03;97260.63;;;3.76;87.86
84310;BME280;74488;49.036;11.472;2023-12-20T00:54:04;97265.19;;;3.72;87.68
84310;BME280;74488;49.036;11.472;2023-12-20T00:55:06;97254.75;;;3.69;87.73
84310;BME280;74488;49.036;11.472;2023-12-20T00:56:08;97258.25;;;3.70;87.71
84310;BME280;74488;49.036;11.472;2023-12-20T00:57:09;97268.66;;;3.73;87.44
84310;BME280;74488;49.036;11.472;2023-12-20T00:58:11;97275.63;;;3.75;87.68
84310;BME280;74488;49.036;11.472;2023-12-20T00:59:12;97274.34;;;3.62;88.31
84310;BME280;74488;49.036;11.472;2023-12-20T01:00:14;97277.16;;;3.58;88.36
84310;BME280;74488;49.036;11.472;2023-12-20T01:01:16;97276.38;;;3.56;88.43
84310;BME280;74488;49.036;11.472;2023-12-20T01:02:17;97282.47;;;3.56;88.50
84310;BME280;74488;49.036;11.472;2023-12-20T01:03:19;97278.06;;;3.57;88.29
84310;BME280;74488;49.036;11.472;2023-12-20T01:04:20;97272.78;;;3.57;88.05
84310;BME280;74488;49.036;11.472;2023-12-20T01:05:22;97275.31;;;3.60;87.53
84310;BME280;74488;49.036;11.472;2023-12-20T01:06:25;97269.03;;;3.64;87.20
84310;BME280;74488;49.036;11.472;2023-12-20T01:07:26;97270.63;;;3.68;87.16
84310;BME280;74488;49.036;11.472;2023-12-20T01:08:28;97269.59;;;3.72;86.85
84310;BME280;74488;49.036;11.472;2023-12-20T01:09:29;97269.41;;;3.76;86.75
84310;BME280;74488;49.036;11.472;2023-12-20T01:10:31;97257.94;;;3.77;86.83
84310;BME280;74488;49.036;11.472;2023-12-20T01:11:32;97256.00;;;3.82;86.39
84310;BME280;74488;49.036;11.472;2023-12-20T01:12:36;97248.03;;;3.84;86.62
84310;BME280;74488;49.036;11.472;2023-12-20T01:13:37;97247.97;;;3.85;86.36
84310;BME280;74488;49.036;11.472;2023-12-20T01:14:39;97247.06;;;3.86;86.54
84310;BME280;74488;49.036;11.472;2023-12-20T01:15:41;97238.94;;;3.91;86.54
84310;BME280;74488;49.036;11.472;2023-12-20T01:16:43;97232.66;;;3.95;86.84
84310;BME280;74488;49.036;11.472;2023-12-20T01:17:44;97243.81;;;4.01;86.92
84310;BME280;74488;49.036;11.472;2023-12-20T01:18:46;97248.34;;;3.98;86.36
84310;BME280;74488;49.036;11.472;2023-12-20T01:19:47;97248.34;;;3.98;86.77
84310;BME280;74488;49.036;11.472;2023-12-20T01:20:49;97243.22;;;3.95;86.39
84310;BME280;74488;49.036;11.472;2023-12-20T01:21:50;97242.09;;;4.00;86.65
84310;BME280;74488;49.036;11.472;2023-12-20T01:22:52;97244.78;;;3.99;86.28
84310;BME280;74488;49.036;11.472;2023-12-20T01:23:54;97218.25;;;3.80;86.53
84310;BME280;74488;49.036;11.472;2023-12-20T01:24:55;97247.44;;;3.99;86.86
84310;BME280;74488;49.036;11.472;2023-12-20T01:25:57;97240.69;;;3.92;87.58
84310;BME280;74488;49.036;11.472;2023-12-20T01:27:00;97247.78;;;3.90;88.36
84310;BME280;74488;49.036;11.472;2023-12-20T01:28:02;97246.97;;;3.88;88.56
84310;BME280;74488;49.036;11.472;2023-12-20T01:29:04;97254.03;;;3.87;88.30
84310;BME280;74488;49.036;11.472;2023-12-20T01:30:06;97253.31;;;3.84;88.86
84310;BME280;74488;49.036;11.472;2023-12-20T01:31:08;97259.63;;;3.80;88.74
84310;BME280;74488;49.036;11.472;2023-12-20T01:32:10;97254.44;;;3.77;88.82
84310;BME280;74488;49.036;11.472;2023-12-20T01:33:11;97257.09;;;3.77;89.04
84310;BME280;74488;49.036;11.472;2023-12-20T01:34:13;97248.75;;;3.64;89.42
84310;BME280;74488;49.036;11.472;2023-12-20T01:35:15;97250.78;;;3.58;90.11
84310;BME280;74488;49.036;11.472;2023-12-20T01:36:16;97255.09;;;3.60;90.13
84310;BME280;74488;49.036;11.472;2023-12-20T01:37:20;97252.38;;;3.62;90.13
84310;BME280;74488;49.036;11.472;2023-12-20T01:38:22;97256.75;;;3.63;90.03
84310;BME280;74488;49.036;11.472;2023-12-20T01:39:24;97247.81;;;3.67;89.99
84310;BME280;74488;49.036;11.472;2023-12-20T01:40:30;97250.38;;;3.68;89.65
84310;BME280;74488;49.036;11.472;2023-12-20T01:41:31;97258.09;;;3.73;89.21
84310;BME280;74488;49.036;11.472;2023-12-20T01:42:33;97251.06;;;3.73;89.35
84310;BME280;74488;49.036;11.472;2023-12-20T01:43:34;97247.56;;;3.73;89.45
84310;BME280;74488;49.036;11.472;2023-12-20T01:44:50;97253.81;;;3.70;89.37
84310;BME280;74488;49.036;11.472;2023-12-20T01:45:52;97247.69;;;3.70;89.62
84310;BME280;74488;49.036;11.472;2023-12-20T01:46:54;97245.97;;;3.69;90.19
84310;BME280;74488;49.036;11.472;2023-12-20T01:47:57;97242.47;;;3.68;89.68
84310;BME280;74488;49.036;11.472;2023-12-20T01:49:00;97221.00;;;3.54;89.85
84310;BME280;74488;49.036;11.472;2023-12-20T01:50:02;97248.72;;;3.66;90.10
84310;BME280;74488;49.036;11.472;2023-12-20T01:51:05;97246.94;;;3.66;90.47
84310;BME280;74488;49.036;11.472;2023-12-20T01:52:07;97249.59;;;3.66;90.34
84310;BME280;74488;49.036;11.472;2023-12-20T01:53:13;97244.31;;;3.66;90.26
84310;BME280;74488;49.036;11.472;2023-12-20T01:54:15;97245.16;;;3.67;90.65
84310;BME280;74488;49.036;11.472;2023-12-20T01:55:19;97239.91;;;3.67;90.68
84310;BME280;74488;49.036;11.472;2023-12-20T01:56:21;97218.16;;;3.60;90.96
84310;BME280;74488;49.036;11.472;2023-12-20T01:57:22;97233.63;;;3.69;90.42
84310;BME280;74488;49.036;11.472;2023-12-20T01:58:24;97230.03;;;3.72;90.47
84310;BME280;74488;49.036;11.472;2023-12-20T01:59:26;97230.78;;;3.75;90.15
84310;BME280;74488;49.036;11.472;2023-12-20T02:00:30;97239.72;;;3.71;90.48
84310;BME280;74488;49.036;11.472;2023-12-20T02:01:32;97185.63;;;3.36;90.43
84310;BME280;74488;49.036;11.472;2023-12-20T02:02:34;97239.91;;;3.67;90.58
84310;BME280;74488;49.036;11.472;2023-12-20T02:03:39;97227.66;;;3.64;91.06
84310;BME280;74488;49.036;11.472;2023-12-20T02:04:42;97232.88;;;3.66;90.94
84310;BME280;74488;49.036;11.472;2023-12-20T02:05:45;97224.22;;;3.62;90.59
84310;BME280;74488;49.036;11.472;2023-12-20T02:06:48;97221.53;;;3.64;90.83
84310;BME280;74488;49.036;11.472;2023-12-20T02:07:53;97222.38;;;3.64;90.62
84310;BME280;74488;49.036;11.472;2023-12-20T02:08:55;97220.56;;;3.66;91.18
84310;BME280;74488;49.036;11.472;2023-12-20T02:09:56;97218.84;;;3.65;90.74
84310;BME280;74488;49.036;11.472;2023-12-20T02:10:58;97228.19;;;3.74;90.91
84310;BME280;74488;49.036;11.472;2023-12-20T02:12:00;97221.06;;;3.76;90.43
84310;BME280;74488;49.036;11.472;2023-12-20T02:13:01;97221.88;;;3.78;90.60
84310;BME280;74488;49.036;11.472;2023-12-20T02:14:03;97219.25;;;3.78;90.98
84310;BME280;74488;49.036;11.472;2023-12-20T02:15:05;97205.34;;;3.73;90.84
84310;BME280;74488;49.036;11.472;2023-12-20T02:16:07;97215.66;;;3.79;91.23
84310;BME280;74488;49.036;11.472;2023-12-20T02:17:09;97212.97;;;3.80;90.87
84310;BME280;74488;49.036;11.472;2023-12-20T02:18:10;97220.03;;;3.80;91.16
84310;BME280;74488;49.036;11.472;2023-12-20T02:19:17;97213.13;;;3.76;91.71
84310;BME280;74488;49.036;11.472;2023-12-20T02:20:19;97213.97;;;3.78;91.85
84310;BME280;74488;49.036;11.472;2023-12-20T02:21:33;97214.88;;;3.77;92.06
84310;BME280;74488;49.036;11.472;2023-12-20T02:22:36;97207.84;;;3.76;92.13
84310;BME280;74488;49.036;11.472;2023-12-20T02:23:37;97206.16;;;3.75;91.92
84310;BME280;74488;49.036;11.472;2023-12-20T02:24:39;97211.38;;;3.76;91.86
84310;BME280;74488;49.036;11.472;2023-12-20T02:25:41;97209.66;;;3.75;91.80
84310;BME280;74488;49.036;11.472;2023-12-20T02:26:42;97208.72;;;3.76;92.17
84310;BME280;74488;49.036;11.472;2023-12-20T02:27:48;97203.53;;;3.75;92.46
84310;BME280;74488;49.036;11.472;2023-12-20T02:28:50;97203.44;;;3.76;91.97
84310;BME280;74488;49.036;11.472;2023-12-20T02:29:51;97205.94;;;3.81;90.90
84310;BME280;74488;49.036;11.472;2023-12-20T02:30:53;97209.34;;;3.83;91.48
84310;BME280;74488;49.036;11.472;2023-12-20T02:31:54;97204.88;;;3.85;91.25
84310;BME280;74488;49.036;11.472;2023-12-20T02:32:56;97202.19;;;3.86;90.99
84310;BME280;74488;49.036;11.472;2023-12-20T02:33:57;97210.16;;;3.85;91.29
84310;BME280;74488;49.036;11.472;2023-12-20T02:34:59;97201.44;;;3.83;91.17
84310;BME280;74488;49.036;11.472;2023-12-20T02:36:00;97197.91;;;3.84;91.61
84310;BME280;74488;49.036;11.472;2023-12-20T02:37:02;97195.25;;;3.84;90.87
84310;BME280;74488;49.036;11.472;2023-12-20T02:38:04;97185.50;;;3.86;90.98
84310;BME280;74488;49.036;11.472;2023-12-20T02:39:05;97193.34;;;3.87;90.68
84310;BME280;74488;49.036;11.472;2023-12-20T02:40:07;97190.69;;;3.87;90.08
84310;BME280;74488;49.036;11.472;2023-12-20T02:41:09;97193.28;;;3.89;90.63
84310;BME280;74488;49.036;11.472;2023-12-20T02:42:11;97162.28;;;3.72;90.76
84310;BME280;74488;49.036;11.472;2023-12-20T02:43:12;97185.50;;;3.86;90.28
84310;BME280;74488;49.036;11.472;2023-12-20T02:44:14;97195.06;;;3.88;90.16
84310;BME280;74488;49.036;11.472;2023-12-20T02:45:15;97187.19;;;3.87;90.47
84310;BME280;74488;49.036;11.472;2023-12-20T02:46:17;97180.25;;;3.84;90.70
84310;BME280;74488;49.036;11.472;2023-12-20T02:47:19;97194.16;;;3.89;90.21
84310;BME280;74488;49.036;11.472;2023-12-20T02:48:21;97194.19;;;3.88;90.64
84310;BME280;74488;49.036;11.472;2023-12-20T02:49:22;97184.63;;;3.85;90.39
84310;BME280;74488;49.036;11.472;2023-12-20T02:50:24;97192.47;;;3.87;90.85
84310;BME280;74488;49.036;11.472;2023-12-20T02:51:26;97192.63;;;3.84;90.69
84310;BME280;74488;49.036;11.472;2023-12-20T02:52:28;97189.09;;;3.83;91.29
84310;BME280;74488;49.036;11.472;2023-12-20T02:53:30;97180.25;;;3.84;90.56
84310;BME280;74488;49.036;11.472;2023-12-20T02:54:31;97188.25;;;3.83;91.03
84310;BME280;74488;49.036;11.472;2023-12-20T02:55:33;97189.09;;;3.83;90.71
84310;BME280;74488;49.036;11.472;2023-12-20T02:56:34;97180.31;;;3.83;91.20
84310;BME280;74488;49.036;11.472;2023-12-20T02:57:36;97184.75;;;3.82;91.25
84310;BME280;74488;49.036;11.472;2023-12-20T02:58:37;97185.59;;;3.83;90.80
84310;BME280;74488;49.036;11.472;2023-12-20T02:59:39;97181.22;;;3.82;91.33
84310;BME280;74488;49.036;11.472;2023-12-20T03:00:40;97182.06;;;3.84;90.95
84310;BME280;74488;49.036;11.472;2023-12-20T03:01:43;97179.56;;;3.79;91.34
84310;BME280;74488;49.036;11.472;2023-12-20T03:02:46;97182.19;;;3.81;91.33
84310;BME280;74488;49.036;11.472;2023-12-20T03:03:48;97184.75;;;3.82;91.37
84310;BME280;74488;49.036;11.472;2023-12-20T03:04:49;97160.75;;;3.67;90.98
84310;BME280;74488;49.036;11.472;2023-12-20T03:05:51;97188.25;;;3.83;91.05
84310;BME280;74488;49.036;11.472;2023-12-20T03:06:53;97182.19;;;3.81;91.07
84310;BME280;74488;49.036;11.472;2023-12-20T03:07:54;97171.50;;;3.84;90.65
84310;BME280;74488;49.036;11.472;2023-12-20T03:08:56;97174.06;;;3.85;91.30
84310;BME280;74488;49.036;11.472;2023-12-20T03:09:57;97174.06;;;3.85;91.04
84310;BME280;74488;49.036;11.472;2023-12-20T03:11:19;97175.97;;;3.82;91.33
84310;BME280;74488;49.036;11.472;2023-12-20T03:12:20;97172.56;;;3.78;92.02
84310;BME280;74488;49.036;11.472;2023-12-20T03:13:22;97173.50;;;3.77;91.86
84310;BME280;74488;49.036;11.472;2023-12-20T03:14:23;97174.25;;;3.81;91.83
84310;BME280;74488;49.036;11.472;2023-12-20T03:15:25;97168.91;;;3.82;91.87
84310;BME280;74488;49.036;11.472;2023-12-20T03:16:26;97171.63;;;3.81;92.01
84310;BME280;74488;49.036;11.472;2023-12-20T03:17:28;97169.03;;;3.79;92.04
84310;BME280;74488;49.036;11.472;2023-12-20T03:18:29;97174.38;;;3.78;91.93
84310;BME280;74488;49.036;11.472;2023-12-20T03:19:31;97177.84;;;3.78;92.40
84310;BME280;74488;49.036;11.472;2023-12-20T03:20:32;97178.66;;;3.80;92.22
84310;BME280;74488;49.036;11.472;2023-12-20T03:21:35;97171.63;;;3.81;91.96
84310;BME280;74488;49.036;11.472;2023-12-20T03:22:37;97176.91;;;3.81;91.88
84310;BME280;74488;49.036;11.472;2023-12-20T03:23:38;97184.81;;;3.81;92.14
84310;BME280;74488;49.036;11.472;2023-12-20T03:24:40;97187.38;;;3.82;92.20
84310;BME280;74488;49.036;11.472;2023-12-20T03:25:41;97190.03;;;3.82;91.99
84310;BME280;74488;49.036;11.472;2023-12-20T03:26:43;97189.97;;;3.84;92.15
84310;BME280;74488;49.036;11.472;2023-12-20T03:27:44;97183.00;;;3.81;92.25
84310;BME280;74488;49.036;11.472;2023-12-20T03:28:46;97190.75;;;3.86;92.47
84310;BME280;74488;49.036;11.472;2023-12-20T03:29:47;97196.03;;;3.86;92.07
84310;BME280;74488;49.036;11.472;2023-12-20T03:30:49;97187.25;;;3.85;92.20
84310;BME280;74488;49.036;11.472;2023-12-20T03:31:51;97192.47;;;3.87;92.25
84310;BME280;74488;49.036;11.472;2023-12-20T03:32:52;97183.53;;;3.91;92.08
84310;BME280;74488;49.036;11.472;2023-12-20T03:33:54;97178.34;;;3.88;92.11
84310;BME280;74488;49.036;11.472;2023-12-20T03:34:56;97187.88;;;3.92;92.04
84310;BME280;74488;49.036;11.472;2023-12-20T03:35:57;97188.06;;;3.87;92.36
84310;BME280;74488;49.036;11.472;2023-12-20T03:36:59;97187.16;;;3.88;92.02
84310;BME280;74488;49.036;11.472;2023-12-20T03:38:00;97188.00;;;3.89;92.17
84310;BME280;74488;49.036;11.472;2023-12-20T03:39:02;97197.63;;;3.90;92.39
84310;BME280;74488;49.036;11.472;2023-12-20T03:40:04;97193.16;;;3.92;92.38
84310;BME280;74488;49.036;11.472;2023-12-20T03:41:06;97171.84;;;3.75;92.13
84310;BME280;74488;49.036;11.472;2023-12-20T03:42:08;97199.44;;;3.89;92.39
84310;BME280;74488;49.036;11.472;2023-12-20T03:43:10;97204.53;;;3.94;92.47
84310;BME280;74488;49.036;11.472;2023-12-20T03:44:11;97195.69;;;3.95;92.12
84310;BME280;74488;49.036;11.472;2023-12-20T03:45:13;97170.09;;;3.75;92.40
84310;BME280;74488;49.036;11.472;2023-12-20T03:46:14;97204.56;;;3.92;92.14
84310;BME280;74488;49.036;11.472;2023-12-20T03:47:16;97199.25;;;3.94;92.10
84310;BME280;74488;49.036;11.472;2023-12-20T03:48:17;97194.06;;;3.91;92.06
84310;BME280;74488;49.036;11.472;2023-12-20T03:49:19;97193.22;;;3.90;92.42
84310;BME280;74488;49.036;11.472;2023-12-20T03:50:22;97199.28;;;3.92;92.56
84310;BME280;74488;49.036;11.472;2023-12-20T03:51:24;97196.47;;;3.97;92.78
84310;BME280;74488;49.036;11.472;2023-12-20T03:52:25;97205.06;;;4.02;92.53
84310;BME280;74488;49.036;11.472;2023-12-20T03:53:27;97186.59;;;4.02;92.16
84310;BME280;74488;49.036;11.472;2023-12-20T03:54:28;97187.38;;;4.04;92.30
84310;BME280;74488;49.036;11.472;2023-12-20T03:55:30;97196.25;;;4.03;92.48
84310;BME280;74488;49.036;11.472;2023-12-20T03:56:32;97188.19;;;4.06;92.43
84310;BME280;74488;49.036;11.472;2023-12-20T03:57:33;97187.50;;;4.01;91.73
84310;BME280;74488;49.036;11.472;2023-12-20T03:58:34;97198.66;;;4.09;91.71
84310;BME280;74488;49.036;11.472;2023-12-20T03:59:37;97194.81;;;4.16;91.43
84310;BME280;74488;49.036;11.472;2023-12-20T04:00:39;97195.69;;;4.17;91.22
84310;BME280;74488;49.036;11.472;2023-12-20T04:01:43;97199.19;;;4.17;91.35
84310;BME280;74488;49.036;11.472;2023-12-20T04:02:45;97200.47;;;4.29;90.20
84310;BME280;74488;49.036;11.472;2023-12-20T04:03:47;97198.50;;;4.34;90.49
84310;BME280;74488;49.036;11.472;2023-12-20T04:04:48;97199.38;;;4.34;90.47
84310;BME280;74488;49.036;11.472;2023-12-20T04:05:50;97192.34;;;4.33;90.58
84310;BME280;74488;49.036;11.472;2023-12-20T04:06:52;97193.97;;;4.37;90.52
84310;BME280;74488;49.036;11.472;2023-12-20T04:07:53;97188.69;;;4.37;90.60
84310;BME280;74488;49.036;11.472;2023-12-20T04:08:55;97192.22;;;4.36;90.57
84310;BME280;74488;49.036;11.472;2023-12-20T04:09:56;97195.66;;;4.38;90.35
84310;BME280;74488;49.036;11.472;2023-12-20T04:10:58;97186.16;;;4.34;90.48
84310;BME280;74488;49.036;11.472;2023-12-20T04:11:59;97198.38;;;4.37;90.66
84310;BME280;74488;49.036;11.472;2023-12-20T04:13:01;97192.03;;;4.41;90.34
84310;BME280;74488;49.036;11.472;2023-12-20T04:14:02;97185.22;;;4.35;90.53
84310;BME280;74488;49.036;11.472;2023-12-20T04:15:06;97189.47;;;4.39;90.39
84310;BME280;74488;49.036;11.472;2023-12-20T04:16:11;97195.66;;;4.38;90.80
84310;BME280;74488;49.036;11.472;2023-12-20T04:17:12;97198.38;;;4.37;91.15
84310;BME280;74488;49.036;11.472;2023-12-20T04:18:14;97191.31;;;4.37;91.03
84310;BME280;74488;49.036;11.472;2023-12-20T04:19:15;97198.44;;;4.35;91.21
84310;BME280;74488;49.036;11.472;2023-12-20T04:20:17;97194.91;;;4.35;91.29
84310;BME280;74488;49.036;11.472;2023-12-20T04:21:19;97155.66;;;4.05;91.30
84310;BME280;74488;49.036;11.472;2023-12-20T04:22:20;97202.00;;;4.34;91.29
84310;BME280;74488;49.036;11.472;2023-12-20T04:23:22;97205.56;;;4.33;91.71
84310;BME280;74488;49.036;11.472;2023-12-20T04:24:23;97196.78;;;4.33;92.00
84310;BME280;74488;49.036;11.472;2023-12-20T04:25:25;97204.03;;;4.28;91.89
84310;BME280;74488;49.036;11.472;2023-12-20T04:26:26;97203.16;;;4.27;92.10
84310;BME280;74488;49.036;11.472;2023-12-20T04:27:28;97187.53;;;4.23;92.26
84310;BME280;74488;49.036;11.472;2023-12-20T04:28:29;97202.81;;;4.36;92.06
84310;BME280;74488;49.036;11.472;2023-12-20T04:29:31;97204.53;;;4.37;91.82
84310;BME280;74488;49.036;11.472;2023-12-20T04:30:33;97209.81;;;4.37;92.01
84310;BME280;74488;49.036;11.472;2023-12-20T04:31:34;97207.22;;;4.36;91.75
84310;BME280;74488;49.036;11.472;2023-12-20T04:32:36;97203.84;;;4.32;92.06
84310;BME280;74488;49.036;11.472;2023-12-20T04:33:37;97203.66;;;4.37;91.95
84310;BME280;74488;49.036;11.472;2023-12-20T04:34:39;97204.53;;;4.37;91.90
84310;BME280;74488;49.036;11.472;2023-12-20T04:35:40;97206.34;;;4.35;91.96
84310;BME280;74488;49.036;11.472;2023-12-20T04:36:44;97208.09;;;4.36;91.89
84310;BME280;74488;49.036;11.472;2023-12-20T04:37:45;97204.66;;;4.34;91.92
84310;BME280;74488;49.036;11.472;2023-12-20T04:38:47;97209.06;;;4.34;92.11
84310;BME280;74488;49.036;11.472;2023-12-20T04:39:49;97206.59;;;4.29;92.17
84310;BME280;74488;49.036;11.472;2023-12-20T04:40:51;97190.56;;;4.12;92.30
84310;BME280;74488;49.036;11.472;2023-12-20T04:41:53;97208.31;;;4.30;92.41
84310;BME280;74488;49.036;11.472;2023-12-20T04:42:54;97206.47;;;4.32;92.22
84310;BME280;74488;49.036;11.472;2023-12-20T04:43:56;97215.34;;;4.31;92.14
84310;BME280;74488;49.036;11.472;2023-12-20T04:44:57;97212.63;;;4.33;92.09
84310;BME280;74488;49.036;11.472;2023-12-20T04:45:59;97214.28;;;4.35;92.19
84310;BME280;74488;49.036;11.472;2023-12-20T04:47:00;97215.94;;;4.38;91.91
84310;BME280;74488;49.036;11.472;2023-12-20T04:48:02;97211.50;;;4.38;92.13
84310;BME280;74488;49.036;11.472;2023-12-20T04:49:04;97219.44;;;4.38;91.89
84310;BME280;74488;49.036;11.472;2023-12-20T04:50:06;97214.16;;;4.38;92.00
84310;BME280;74488;49.036;11.472;2023-12-20T04:51:08;97212.38;;;4.39;91.83
84310;BME280;74488;49.036;11.472;2023-12-20T04:52:09;97208.94;;;4.37;92.05
84310;BME280;74488;49.036;11.472;2023-12-20T04:53:11;97207.97;;;4.39;91.92
84310;BME280;74488;49.036;11.472;2023-12-20T04:54:12;97204.53;;;4.37;91.87
84310;BME280;74488;49.036;11.472;2023-12-20T04:55:15;97209.66;;;4.40;91.87
84310;BME280;74488;49.036;11.472;2023-12-20T04:56:16;97205.44;;;4.36;91.75
84310;BME280;74488;49.036;11.472;2023-12-20T04:57:18;97217.75;;;4.37;92.09
84310;BME280;74488;49.036;11.472;2023-12-20T04:58:19;97207.28;;;4.34;92.08
84310;BME280;74488;49.036;11.472;2023-12-20T04:59:21;97219.56;;;4.35;91.97
84310;BME280;74488;49.036;11.472;2023-12-20T05:00:22;97211.47;;;4.40;91.70
84310;BME280;74488;49.036;11.472;2023-12-20T05:01:24;97212.38;;;4.39;92.20
84310;BME280;74488;49.036;11.472;2023-12-20T05:02:26;97215.81;;;4.41;91.95
84310;BME280;74488;49.036;11.472;2023-12-20T05:03:27;97213.16;;;4.41;92.22
84310;BME280;74488;49.036;11.472;2023-12-20T05:04:29;97213.25;;;4.39;92.13
84310;BME280;74488;49.036;11.472;2023-12-20T05:05:30;97203.72;;;4.35;92.22
84310;BME280;74488;49.036;11.472;2023-12-20T05:06:32;97201.19;;;4.32;92.49
84310;BME280;74488;49.036;11.472;2023-12-20T05:07:33;97217.53;;;4.42;92.05
84310;BME280;74488;49.036;11.472;2023-12-20T05:08:35;97211.38;;;4.41;92.14
84310;BME280;74488;49.036;11.472;2023-12-20T05:09:36;97215.69;;;4.44;91.97
84310;BME280;74488;49.036;11.472;2023-12-20T05:10:38;97214.56;;;4.49;92.16
84310;BME280;74488;49.036;11.472;2023-12-20T05:11:41;97212.88;;;4.48;91.83
84310;BME280;74488;49.036;11.472;2023-12-20T05:12:43;97214.44;;;4.52;91.11
84310;BME280;74488;49.036;11.472;2023-12-20T05:13:44;97208.56;;;4.46;91.16
84310;BME280;74488;49.036;11.472;2023-12-20T05:14:52;97172.59;;;4.22;91.04
84310;BME280;74488;49.036;11.472;2023-12-20T05:15:53;97207.72;;;4.45;91.37
84310;BME280;74488;49.036;11.472;2023-12-20T05:16:55;97210.41;;;4.44;91.75
84310;BME280;74488;49.036;11.472;2023-12-20T05:17:57;97217.41;;;4.45;91.78
84310;BME280;74488;49.036;11.472;2023-12-20T05:18:59;97216.50;;;4.46;91.58
84310;BME280;74488;49.036;11.472;2023-12-20T05:20:02;97208.75;;;4.41;90.84
84310;BME280;74488;49.036;11.472;2023-12-20T05:21:04;97209.28;;;4.49;90.10
84310;BME280;74488;49.036;11.472;2023-12-20T05:22:05;97214.56;;;4.49;90.11
84310;BME280;74488;49.036;11.472;2023-12-20T05:23:07;97211.69;;;4.55;89.86
84310;BME280;74488;49.036;11.472;2023-12-20T05:24:09;97210.88;;;4.53;89.62
84310;BME280;74488;49.036;11.472;2023-12-20T05:25:10;97222.25;;;4.55;90.24
84310;BME280;74488;49.036;11.472;2023-12-20T05:26:12;97220.47;;;4.56;90.35
84310;BME280;74488;49.036;11.472;2023-12-20T05:27:13;97224.09;;;4.53;89.40
84310;BME280;74488;49.036;11.472;2023-12-20T05:28:15;97224.88;;;4.55;89.37